Canaveral Air Station, Florida
Current Conditions -  °F | °C
As of 3:58 AM on Monday 20 Oct 2014 (Local Time) from KCOF Reporting Station
Clear Clear  
Wind Chill: 72°   Ceiling: Unl
Heat Index: 72°   Visibility: 10mi
Dew Point: 70°   Wind: 6mph
Humidity: 92%   Direction: 310°NW
Pressure: 30.01"   Gusts: NA
Location:  28.2343°N, 80.6078°W
Report Text: KCOF 200758Z AUTO 31005KT 10SM CLR 22/21 A3001 RMK AO2 SLP167 T02230210 $
Loading
Personal Weather Stations






























Interactive Weather Map
Tropical Storm Tracking
New forecast layout! Learn more

10-Day Weather Forecast

Advertisements
Track Severe Weather on mobile